createdAt,value
2022-09-21T00:02:05.227Z,101835.38
2022-09-21T00:07:08.633Z,101835.91
2022-09-21T00:12:12.501Z,101835.72
2022-09-21T00:17:17.257Z,101834.69
2022-09-21T00:22:20.659Z,101843.78
2022-09-21T00:27:29.910Z,101838.84
2022-09-21T00:32:36.227Z,101843.19
2022-09-21T00:37:39.557Z,101842.00
2022-09-21T00:42:42.942Z,101845.94
2022-09-21T00:47:50.045Z,101842.78
2022-09-21T00:52:56.952Z,101850.13
2022-09-21T00:58:02.796Z,101853.91
2022-09-21T01:03:08.527Z,101851.41
2022-09-21T01:08:13.454Z,101855.16
2022-09-21T01:13:25.263Z,101864.44
2022-09-21T01:18:34.628Z,101864.13
2022-09-21T01:24:09.325Z,101862.22
2022-09-21T01:29:21.418Z,101869.56
2022-09-21T01:34:29.143Z,101872.56
2022-09-21T01:39:34.849Z,101873.47
2022-09-21T01:44:40.510Z,101873.88
2022-09-21T01:49:46.432Z,101873.31
2022-09-21T01:54:53.785Z,101871.22
2022-09-21T02:00:00.377Z,101865.06
2022-09-21T02:05:05.360Z,101878.53
2022-09-21T02:10:09.836Z,101874.19
2022-09-21T02:15:14.786Z,101875.81
2022-09-21T02:20:21.188Z,101879.25
2022-09-21T02:25:36.060Z,101877.31
2022-09-21T02:30:42.270Z,101874.84
2022-09-21T02:35:52.044Z,101876.19
2022-09-21T02:40:59.009Z,101882.31
2022-09-21T02:46:06.450Z,101874.09
2022-09-21T02:51:12.768Z,101868.31
2022-09-21T02:56:17.077Z,101879.63
2022-09-21T03:01:22.135Z,101874.63
2022-09-21T03:06:25.554Z,101875.63
2022-09-21T03:11:29.112Z,101877.78
2022-09-21T03:16:33.852Z,101881.75
2022-09-21T03:21:39.203Z,101892.25
2022-09-21T03:26:46.099Z,101883.91
2022-09-21T03:31:52.405Z,101892.84
2022-09-21T03:36:55.795Z,101893.06
2022-09-21T03:41:59.766Z,101897.63
2022-09-21T03:47:06.640Z,101895.50
2022-09-21T03:52:09.997Z,101900.09
2022-09-21T03:57:13.345Z,101903.94
2022-09-21T04:02:18.185Z,101902.69
2022-09-21T04:07:21.694Z,101902.25
2022-09-21T04:12:25.042Z,101904.88
2022-09-21T04:17:31.443Z,101908.81
2022-09-21T04:22:36.334Z,101908.81
2022-09-21T04:27:42.277Z,101912.94
2022-09-21T04:32:47.454Z,101908.81
2022-09-21T04:37:50.864Z,101913.97
2022-09-21T04:42:54.305Z,101911.47
2022-09-21T04:47:59.030Z,101918.22
2022-09-21T04:53:02.365Z,101915.66
2022-09-21T04:58:05.742Z,101917.69
2022-09-21T05:03:10.600Z,101916.88
2022-09-21T05:08:13.963Z,101927.25
2022-09-21T05:13:19.856Z,101922.22
2022-09-21T05:18:24.878Z,101932.25
2022-09-21T05:23:29.493Z,101937.53
2022-09-21T05:28:37.726Z,101930.97
2022-09-21T05:33:49.585Z,101950.44
2022-09-21T05:38:53.553Z,101943.75
2022-09-21T05:43:57.343Z,101944.94
2022-09-21T05:49:06.134Z,101949.88
2022-09-21T05:54:12.532Z,101944.81
2022-09-21T05:59:36.783Z,101955.06
2022-09-21T06:04:42.205Z,101957.19
2022-09-21T06:09:45.675Z,101971.09
2022-09-21T06:14:49.232Z,101977.44
2022-09-21T06:19:54.078Z,101978.22
2022-09-21T06:24:57.459Z,101987.13
2022-09-21T06:30:00.839Z,101978.13
2022-09-21T06:35:06.330Z,101979.75
2022-09-21T06:40:10.434Z,101980.88
2022-09-21T06:45:13.898Z,101970.97
2022-09-21T06:50:18.734Z,101977.38
2022-09-21T06:55:22.229Z,101986.94
2022-09-21T07:00:25.613Z,101987.97
2022-09-21T07:05:30.429Z,101992.22
2022-09-21T07:10:33.800Z,101979.78
2022-09-21T07:15:37.324Z,101972.16
2022-09-21T07:20:42.468Z,101981.91
2022-09-21T07:25:48.806Z,101979.47
2022-09-21T07:30:52.183Z,101986.50
2022-09-21T07:35:57.175Z,101981.75
2022-09-21T07:41:03.019Z,101983.31
2022-09-21T07:46:06.829Z,101983.16
2022-09-21T07:51:14.001Z,101984.44
2022-09-21T07:56:20.090Z,101983.91
2022-09-21T08:01:24.243Z,101985.22
2022-09-21T08:06:30.922Z,101985.09
2022-09-21T08:11:34.489Z,101983.53
2022-09-21T08:16:39.374Z,101977.22
2022-09-21T08:21:44.495Z,101984.34
2022-09-21T08:26:48.278Z,101982.03
2022-09-21T08:31:52.267Z,101985.16
2022-09-21T08:36:57.012Z,101973.31
2022-09-21T08:42:07.173Z,101976.25
2022-09-21T08:47:14.146Z,101974.53
2022-09-21T08:52:20.954Z,101973.72
2022-09-21T08:57:30.031Z,101965.94
2022-09-21T09:02:44.209Z,101965.34
2022-09-21T09:07:59.469Z,101974.41
2022-09-21T09:13:14.063Z,101973.53
2022-09-21T09:18:24.357Z,101982.16
2022-09-21T09:23:32.286Z,101976.00
2022-09-21T09:28:37.249Z,101982.69
2022-09-21T09:33:47.448Z,101975.56
2022-09-21T09:38:57.288Z,101981.03
2022-09-21T09:44:11.843Z,101972.44
2022-09-21T09:49:24.116Z,101978.38
2022-09-21T09:54:31.147Z,101977.94
2022-09-21T09:59:37.209Z,101969.50
2022-09-21T10:04:55.653Z,101958.97
2022-09-21T10:10:00.423Z,101975.75
2022-09-21T10:15:05.066Z,101962.84
2022-09-21T10:20:16.494Z,101952.91
2022-09-21T10:25:21.694Z,101961.47
2022-09-21T10:30:35.934Z,101952.78
2022-09-21T10:35:50.170Z,101941.72
2022-09-21T10:40:55.244Z,101934.94
2022-09-21T10:45:58.887Z,101939.94
2022-09-21T10:51:02.421Z,101941.03
2022-09-21T10:56:17.049Z,101950.91
2022-09-21T11:01:23.474Z,101953.09
2022-09-21T11:06:30.564Z,101934.75
2022-09-21T11:11:42.440Z,101922.34
2022-09-21T11:16:49.190Z,101924.91
2022-09-21T11:21:56.310Z,101940.34
2022-09-21T11:27:05.021Z,101942.69
2022-09-21T11:32:20.215Z,101927.84
2022-09-21T11:37:37.294Z,101922.28
2022-09-21T11:42:51.698Z,101916.41
2022-09-21T11:48:07.544Z,101903.16
2022-09-21T11:53:20.981Z,101919.06
2022-09-21T11:58:31.442Z,101911.91
2022-09-21T12:03:45.986Z,101906.00
2022-09-21T12:09:17.808Z,101911.97
2022-09-21T12:14:28.546Z,101893.00
2022-09-21T12:19:40.248Z,101887.25
2022-09-21T12:24:47.554Z,101886.81
2022-09-21T12:29:54.681Z,101881.72
2022-09-21T12:35:01.988Z,101880.41
2022-09-21T12:40:08.399Z,101887.03
2022-09-21T12:45:18.273Z,101872.59
2022-09-21T12:50:26.067Z,101863.22
2022-09-21T12:55:45.453Z,101864.78
2022-09-21T13:00:56.501Z,101852.50
2022-09-21T13:06:30.301Z,101868.38
2022-09-21T13:11:35.250Z,101859.53
2022-09-21T13:16:40.591Z,101857.97
2022-09-21T13:21:45.001Z,101861.13
2022-09-21T13:26:54.368Z,101857.34
2022-09-21T13:32:00.910Z,101869.66
2022-09-21T13:37:34.502Z,101840.28
2022-09-21T13:42:48.782Z,101841.09
2022-09-21T13:47:55.313Z,101839.94
2022-09-21T13:53:00.484Z,101839.59
2022-09-21T13:58:05.890Z,101834.31
2022-09-21T14:03:23.314Z,101836.28
2022-09-21T14:08:31.200Z,101830.66
2022-09-21T14:13:36.112Z,101839.78
2022-09-21T14:18:40.778Z,101831.69
2022-09-21T14:24:20.209Z,101841.50
2022-09-21T14:29:27.253Z,101837.75
2022-09-21T14:34:36.891Z,101827.50
2022-09-21T14:39:44.214Z,101832.13
2022-09-21T14:44:49.839Z,101826.47
2022-09-21T14:50:14.407Z,101820.72
2022-09-21T14:55:21.694Z,101811.94
2022-09-21T15:00:27.146Z,101801.81
2022-09-21T15:05:36.198Z,101804.88
2022-09-21T15:10:57.849Z,101797.63
2022-09-21T15:16:11.276Z,101794.34
2022-09-21T15:21:24.110Z,101788.50
2022-09-21T15:26:30.409Z,101787.31
2022-09-21T15:31:34.923Z,101776.34
2022-09-21T15:36:42.634Z,101783.81
2022-09-21T15:41:49.797Z,101781.41
2022-09-21T15:46:57.790Z,101783.88
2022-09-21T15:52:06.251Z,101780.75
2022-09-21T15:57:25.629Z,101782.16
2022-09-21T16:02:34.479Z,101784.78
2022-09-21T16:07:39.686Z,101786.28
2022-09-21T16:12:43.731Z,101784.06
2022-09-21T16:18:01.266Z,101794.94
2022-09-21T16:23:07.941Z,101790.03
2022-09-21T16:28:31.833Z,101795.59
2022-09-21T16:33:42.647Z,101802.56
2022-09-21T16:38:48.021Z,101797.97
2022-09-21T16:43:52.024Z,101803.44
2022-09-21T16:48:55.460Z,101807.88
2022-09-21T16:54:00.139Z,101804.25
2022-09-21T16:59:10.370Z,101802.56
2022-09-21T17:04:13.931Z,101803.69
2022-09-21T17:09:29.543Z,101805.41
2022-09-21T17:14:35.109Z,101804.94
2022-09-21T17:19:39.074Z,101800.34
2022-09-21T17:24:52.738Z,101809.88
2022-09-21T17:29:56.420Z,101814.13
2022-09-21T17:35:02.012Z,101821.06
2022-09-21T17:40:10.708Z,101809.16
2022-09-21T17:45:21.234Z,101813.91
2022-09-21T17:50:28.517Z,101817.19
2022-09-21T17:55:34.113Z,101810.91
2022-09-21T18:00:54.397Z,101813.53
2022-09-21T18:06:07.516Z,101815.56
2022-09-21T18:11:42.824Z,101819.97
2022-09-21T18:16:56.539Z,101819.84
2022-09-21T18:22:03.521Z,101829.69
2022-09-21T18:27:10.865Z,101822.66
2022-09-21T18:32:28.947Z,101829.44
2022-09-21T18:37:37.248Z,101835.03
2022-09-21T18:42:48.951Z,101827.44
2022-09-21T18:48:21.355Z,101834.09
2022-09-21T18:53:28.608Z,101836.59
2022-09-21T18:58:34.110Z,101843.59
2022-09-21T19:03:38.641Z,101836.22
2022-09-21T19:08:45.957Z,101845.44
2022-09-21T19:13:56.007Z,101843.44
2022-09-21T19:19:12.095Z,101837.09
2022-09-21T19:24:21.549Z,101843.31
2022-09-21T19:29:38.158Z,101842.22
2022-09-21T19:34:41.893Z,101846.44
2022-09-21T19:39:45.649Z,101842.09
2022-09-21T19:45:01.294Z,101844.59
2022-09-21T19:50:17.622Z,101846.81
2022-09-21T19:55:40.075Z,101846.41
2022-09-21T20:00:45.377Z,101842.38
2022-09-21T20:06:02.424Z,101855.25
2022-09-21T20:11:10.976Z,101852.91
2022-09-21T20:16:27.439Z,101847.97
2022-09-21T20:21:37.149Z,101851.88
2022-09-21T20:26:40.567Z,101854.44
2022-09-21T20:31:45.523Z,101848.03
2022-09-21T20:36:48.931Z,101845.88
2022-09-21T20:41:52.408Z,101850.09
2022-09-21T20:46:57.254Z,101849.00
2022-09-21T20:52:01.242Z,101840.72
2022-09-21T20:57:05.081Z,101844.75
2022-09-21T21:02:10.960Z,101851.94
2022-09-21T21:07:14.398Z,101848.72
2022-09-21T21:12:17.842Z,101858.63
2022-09-21T21:17:22.728Z,101862.84
2022-09-21T21:22:26.301Z,101860.91
2022-09-21T21:27:29.687Z,101854.69
2022-09-21T21:32:34.938Z,101854.97
2022-09-21T21:37:40.258Z,101857.63
2022-09-21T21:42:43.672Z,101853.72
2022-09-21T21:47:48.463Z,101858.31
2022-09-21T21:52:51.921Z,101852.31
2022-09-21T21:57:56.242Z,101852.91
2022-09-21T22:03:02.436Z,101851.69
2022-09-21T22:08:06.369Z,101850.91
2022-09-21T22:13:09.779Z,101847.63
2022-09-21T22:18:15.007Z,101851.91
2022-09-21T22:23:18.449Z,101860.88
2022-09-21T22:28:21.858Z,101847.31
2022-09-21T22:33:31.154Z,101857.84
2022-09-21T22:38:41.904Z,101854.56
2022-09-21T22:43:46.854Z,101851.31
2022-09-21T22:48:51.730Z,101855.94
2022-09-21T22:53:55.281Z,101855.31
2022-09-21T22:59:00.164Z,101845.09
2022-09-21T23:04:07.038Z,101854.53
2022-09-21T23:09:19.512Z,101845.94
2022-09-21T23:14:23.696Z,101843.44
2022-09-21T23:19:28.550Z,101838.50
2022-09-21T23:24:31.931Z,101837.56
2022-09-21T23:29:35.319Z,101832.34
2022-09-21T23:34:40.202Z,101836.81
2022-09-21T23:39:43.656Z,101824.84
2022-09-21T23:44:47.048Z,101832.25
2022-09-21T23:49:51.819Z,101825.31
2022-09-21T23:54:55.219Z,101828.97
2022-09-21T23:59:58.603Z,101826.47
